Time;durP1;ratioP1;P1;durP2;ratioP2;P2;SDS_P1;SDS_P2;PMS_P1;PMS_P2;Temp;Humidity;BMP_temperature;BMP_pressure;BME280_temperature;BME280_humidity;BME280_pressure;Samples;Min_cycle;Max_cycle;Signal;HPM_P1;HPM_P2
2023/10/25 00:00:20;;;;;;;4.63;2.45;;;8.60;99.90;;;;;;5022649;28;20107;-81
2023/10/25 00:02:47;;;;;;;2.28;1.90;;;8.60;99.90;;;;;;5008865;28;20048;-81
2023/10/25 00:05:13;;;;;;;1.88;1.77;;;8.60;99.90;;;;;;5025628;28;20025;-80
2023/10/25 00:07:39;;;;;;;1.98;1.40;;;8.70;99.90;;;;;;5023138;28;20045;-81
2023/10/25 00:10:05;;;;;;;1.95;1.52;;;8.70;99.90;;;;;;5028067;28;20036;-82
2023/10/25 00:12:32;;;;;;;0.98;0.98;;;8.80;99.90;;;;;;5025904;28;20026;-82
2023/10/25 00:14:58;;;;;;;1.63;1.20;;;8.80;99.90;;;;;;5019020;28;20034;-81
2023/10/25 00:17:24;;;;;;;1.70;1.50;;;8.80;99.90;;;;;;5024716;28;20038;-81
2023/10/25 00:19:52;;;;;;;1.30;1.20;;;8.80;99.90;;;;;;5026096;28;20447;-81
2023/10/25 00:22:18;;;;;;;0.85;0.85;;;8.80;99.90;;;;;;5017332;28;20040;-81
2023/10/25 00:24:44;;;;;;;1.40;1.30;;;8.80;99.90;;;;;;5020937;28;20030;-82
2023/10/25 00:27:10;;;;;;;3.28;2.33;;;8.80;99.90;;;;;;5024332;28;20359;-82
2023/10/25 00:29:36;;;;;;;2.42;2.17;;;8.80;99.90;;;;;;5025133;28;20037;-82
2023/10/25 00:32:05;;;;;;;2.38;1.90;;;8.80;99.90;;;;;;5016049;28;20471;-81
2023/10/25 00:34:32;;;;;;;1.50;1.40;;;8.80;99.90;;;;;;5026367;28;20041;-82
2023/10/25 00:36:58;;;;;;;0.70;0.70;;;8.80;99.90;;;;;;5021608;28;20469;-82
2023/10/25 00:39:25;;;;;;;2.33;1.50;;;8.80;99.90;;;;;;5004481;28;20037;-82
2023/10/25 00:41:51;;;;;;;1.85;1.75;;;8.80;99.90;;;;;;5023051;28;20029;-81
2023/10/25 00:44:17;;;;;;;2.85;1.73;;;8.80;99.90;;;;;;5024602;28;20025;-82
2023/10/25 00:46:44;;;;;;;1.55;1.45;;;8.70;99.90;;;;;;5027561;28;20037;-82
2023/10/25 00:49:10;;;;;;;6.75;2.92;;;8.70;99.90;;;;;;5021777;28;20478;-82
2023/10/25 00:51:37;;;;;;;2.67;0.90;;;8.70;99.90;;;;;;5026970;28;20034;-81
2023/10/25 00:54:03;;;;;;;1.25;0.98;;;8.70;99.90;;;;;;5016471;28;20057;-82
2023/10/25 00:56:32;;;;;;;2.30;1.90;;;8.70;99.90;;;;;;5019267;28;20034;-82
2023/10/25 00:58:59;;;;;;;4.78;2.55;;;8.70;99.90;;;;;;5009045;28;20041;-83
2023/10/25 01:01:28;;;;;;;1.63;1.52;;;8.70;99.90;;;;;;5011783;28;20057;-82
2023/10/25 01:03:55;;;;;;;4.30;2.10;;;8.80;99.90;;;;;;5021782;28;20045;-83
2023/10/25 01:06:21;;;;;;;1.75;1.65;;;8.80;99.90;;;;;;5020725;28;20034;-83
2023/10/25 01:08:48;;;;;;;2.58;1.25;;;8.80;99.90;;;;;;5022544;28;20030;-82
2023/10/25 01:11:15;;;;;;;1.85;1.35;;;8.80;99.90;;;;;;5023851;28;20042;-83
2023/10/25 01:13:41;;;;;;;3.10;1.70;;;8.80;99.90;;;;;;5028922;28;20442;-82
2023/10/25 01:16:07;;;;;;;4.30;2.85;;;8.80;99.90;;;;;;5003347;28;20430;-83
2023/10/25 01:18:33;;;;;;;1.80;1.50;;;8.80;99.90;;;;;;5022481;28;20044;-83
2023/10/25 01:21:00;;;;;;;1.50;1.38;;;8.80;99.90;;;;;;5010565;28;20053;-83
2023/10/25 01:23:27;;;;;;;1.55;1.45;;;8.90;99.90;;;;;;5006074;28;20053;-83
2023/10/25 01:25:53;;;;;;;1.50;1.40;;;8.90;99.90;;;;;;5023066;28;20044;-83
2023/10/25 01:28:19;;;;;;;2.40;2.20;;;8.90;99.90;;;;;;5013690;28;20470;-83
2023/10/25 01:30:46;;;;;;;2.30;1.95;;;8.90;99.90;;;;;;5025067;28;20033;-83
2023/10/25 01:33:12;;;;;;;2.58;2.35;;;8.90;99.90;;;;;;5024324;28;20038;-83
2023/10/25 01:35:39;;;;;;;2.85;2.05;;;8.90;99.90;;;;;;5022011;28;20041;-82
2023/10/25 01:38:05;;;;;;;2.25;1.92;;;8.90;99.90;;;;;;5016003;28;20030;-84
2023/10/25 01:40:31;;;;;;;1.83;1.67;;;8.80;99.90;;;;;;5026991;28;20029;-83
2023/10/25 01:42:57;;;;;;;3.00;1.52;;;8.80;99.90;;;;;;5023165;28;20041;-84
2023/10/25 01:45:24;;;;;;;2.63;2.08;;;8.80;99.90;;;;;;5025792;28;20389;-83
2023/10/25 01:47:51;;;;;;;2.70;2.42;;;8.80;99.90;;;;;;5013726;28;20493;-84
2023/10/25 01:50:18;;;;;;;6.85;3.65;;;8.80;99.90;;;;;;5026032;28;20579;-83
2023/10/25 01:52:46;;;;;;;4.28;2.72;;;8.80;99.90;;;;;;5020979;28;20410;-83
2023/10/25 01:55:14;;;;;;;7.18;3.42;;;8.80;99.90;;;;;;5009451;28;20041;-83
2023/10/25 01:57:40;;;;;;;2.53;2.30;;;8.80;99.90;;;;;;5027388;28;20490;-83
2023/10/25 02:00:07;;;;;;;4.15;2.75;;;8.80;99.90;;;;;;5025840;28;20033;-84
2023/10/25 02:02:40;;;;;;;3.13;2.83;;;8.90;99.90;;;;;;5007777;28;20041;-83
2023/10/25 02:05:06;;;;;;;1.95;1.85;;;8.90;99.90;;;;;;5014745;28;20050;-83
2023/10/25 02:07:34;;;;;;;1.30;1.25;;;8.90;99.90;;;;;;5032889;28;20034;-83
2023/10/25 02:10:00;;;;;;;3.13;2.35;;;8.90;99.90;;;;;;5016917;28;20045;-83
2023/10/25 02:12:27;;;;;;;1.80;1.70;;;9.00;99.90;;;;;;5014621;28;20041;-83
2023/10/25 02:14:53;;;;;;;2.42;2.22;;;8.90;99.90;;;;;;5029395;28;20045;-82
2023/10/25 02:17:19;;;;;;;3.17;2.30;;;9.00;99.90;;;;;;5024393;28;20045;-83
2023/10/25 02:19:46;;;;;;;2.92;2.40;;;9.00;99.90;;;;;;5004873;28;20038;-82
2023/10/25 02:22:12;;;;;;;3.00;2.70;;;9.00;99.90;;;;;;5031216;28;20052;-83
2023/10/25 02:24:41;;;;;;;3.28;2.53;;;9.10;99.90;;;;;;5010093;28;20048;-83
2023/10/25 02:27:08;;;;;;;3.10;2.72;;;9.10;99.90;;;;;;5026500;28;20037;-83
2023/10/25 02:29:34;;;;;;;2.10;1.95;;;9.10;99.90;;;;;;5024020;28;20033;-84
2023/10/25 02:32:01;;;;;;;2.50;1.65;;;9.20;99.90;;;;;;5021697;28;20053;-83
2023/10/25 02:34:28;;;;;;;2.83;2.25;;;9.20;99.90;;;;;;5035478;28;20285;-82
2023/10/25 02:36:54;;;;;;;3.33;2.40;;;9.20;99.90;;;;;;5006914;28;20052;-82
2023/10/25 02:39:20;;;;;;;2.47;2.22;;;9.20;99.90;;;;;;5024035;28;20060;-83
2023/10/25 02:41:46;;;;;;;4.82;3.72;;;9.30;99.90;;;;;;5016069;28;20037;-83
2023/10/25 02:44:13;;;;;;;6.95;3.25;;;9.30;99.90;;;;;;5023065;28;20402;-84
2023/10/25 02:46:39;;;;;;;1.70;1.60;;;9.30;99.90;;;;;;5030634;28;20052;-83
2023/10/25 02:49:05;;;;;;;2.72;2.17;;;9.30;99.90;;;;;;5029499;28;20048;-83
2023/10/25 02:51:31;;;;;;;2.53;2.33;;;9.30;99.90;;;;;;5020875;28;20030;-84
2023/10/25 02:53:57;;;;;;;2.08;1.65;;;9.30;99.90;;;;;;5025594;28;20030;-84
2023/10/25 02:56:24;;;;;;;5.82;3.22;;;9.40;99.90;;;;;;5029993;28;20037;-82
2023/10/25 02:58:50;;;;;;;2.45;2.08;;;9.40;99.90;;;;;;5028392;28;20033;-83
2023/10/25 03:01:21;;;;;;;1.65;1.55;;;9.30;99.90;;;;;;5021564;28;20033;-83
2023/10/25 03:03:47;;;;;;;13.25;3.45;;;9.30;99.90;;;;;;5006881;28;20049;-83
2023/10/25 03:06:13;;;;;;;5.35;2.33;;;9.40;99.90;;;;;;5025030;28;20033;-83
2023/10/25 03:08:43;;;;;;;1.98;1.80;;;9.30;99.90;;;;;;5024976;28;20040;-83
2023/10/25 03:11:09;;;;;;;3.08;2.85;;;9.40;99.90;;;;;;5003546;28;20042;-83
2023/10/25 03:13:38;;;;;;;2.40;2.20;;;9.30;99.90;;;;;;5027244;28;20047;-83
2023/10/25 03:16:05;;;;;;;2.33;1.98;;;9.40;99.90;;;;;;5021028;28;20038;-84
2023/10/25 03:18:33;;;;;;;4.15;2.75;;;9.40;99.90;;;;;;5012682;28;20046;-83
2023/10/25 03:21:01;;;;;;;4.15;3.75;;;9.30;99.90;;;;;;5024633;28;20033;-84
2023/10/25 03:23:29;;;;;;;2.00;1.80;;;9.30;99.90;;;;;;5017478;28;20049;-83
2023/10/25 03:25:55;;;;;;;2.90;2.63;;;9.40;99.90;;;;;;5029229;28;20033;-83
2023/10/25 03:28:21;;;;;;;3.47;2.30;;;9.30;99.90;;;;;;5007386;28;20030;-83
2023/10/25 03:30:47;;;;;;;6.75;3.38;;;9.30;99.90;;;;;;5023153;28;20030;-84
2023/10/25 03:33:13;;;;;;;3.75;3.45;;;9.40;99.90;;;;;;5022902;28;20030;-83
2023/10/25 03:35:39;;;;;;;1.48;1.38;;;9.30;99.90;;;;;;5023697;28;20034;-82
2023/10/25 03:38:05;;;;;;;2.13;1.92;;;9.30;99.90;;;;;;5026603;28;20371;-84
2023/10/25 03:40:32;;;;;;;3.30;2.72;;;9.40;99.90;;;;;;5023941;28;20032;-84
2023/10/25 03:42:58;;;;;;;2.50;2.33;;;9.40;99.90;;;;;;5020906;28;20041;-83
2023/10/25 03:45:25;;;;;;;3.40;3.10;;;9.40;99.90;;;;;;5025702;28;20033;-83
2023/10/25 03:47:51;;;;;;;2.03;1.90;;;9.40;99.90;;;;;;5023754;28;20042;-83
2023/10/25 03:50:17;;;;;;;6.03;2.40;;;9.40;99.90;;;;;;5004770;28;20060;-83
2023/10/25 03:52:44;;;;;;;3.20;2.60;;;9.40;99.90;;;;;;5022117;28;20037;-83
2023/10/25 03:55:10;;;;;;;3.60;2.35;;;9.40;99.90;;;;;;5013054;28;20048;-84
2023/10/25 03:57:36;;;;;;;6.00;2.85;;;9.40;99.90;;;;;;5020762;28;20033;-84
2023/10/25 04:00:03;;;;;;;2.65;2.42;;;9.50;99.90;;;;;;5025544;28;20029;-84
2023/10/25 04:02:38;;;;;;;7.22;3.42;;;9.40;99.90;;;;;;5034526;28;20041;-84
2023/10/25 04:05:04;;;;;;;6.15;4.10;;;9.40;99.90;;;;;;5018906;28;20379;-83
2023/10/25 04:07:33;;;;;;;1.08;0.95;;;9.50;99.90;;;;;;5025095;28;20485;-84
2023/10/25 04:09:59;;;;;;;5.97;2.75;;;9.50;99.90;;;;;;5021628;28;20030;-83
2023/10/25 04:12:27;;;;;;;3.10;2.15;;;9.50;99.90;;;;;;5008883;28;20388;-83
2023/10/25 04:14:53;;;;;;;2.35;2.25;;;9.50;99.90;;;;;;5026805;28;20030;-81
2023/10/25 04:17:19;;;;;;;6.18;1.52;;;9.60;99.90;;;;;;5028460;28;20048;-82
2023/10/25 04:19:46;;;;;;;3.40;2.88;;;9.60;99.90;;;;;;5028556;28;20368;-82
2023/10/25 04:22:13;;;;;;;3.90;3.20;;;9.60;99.90;;;;;;5024210;28;20494;-82
2023/10/25 04:24:39;;;;;;;3.03;2.53;;;9.70;99.90;;;;;;5022614;28;20033;-82
2023/10/25 04:27:05;;;;;;;3.67;3.33;;;9.60;99.90;;;;;;5022394;28;20040;-83
2023/10/25 04:29:31;;;;;;;5.47;3.28;;;9.70;99.90;;;;;;5027486;28;20481;-84
2023/10/25 04:31:57;;;;;;;2.58;2.13;;;9.70;99.90;;;;;;5026747;28;20033;-85
2023/10/25 04:34:24;;;;;;;3.28;3.00;;;9.70;99.90;;;;;;5030253;28;20064;-85
2023/10/25 04:36:51;;;;;;;4.68;2.55;;;9.80;99.90;;;;;;5029566;28;20041;-84
2023/10/25 04:39:18;;;;;;;17.25;3.88;;;9.80;99.90;;;;;;5024990;28;20463;-84
2023/10/25 04:41:44;;;;;;;5.00;4.55;;;9.80;99.90;;;;;;5025915;28;20041;-84
2023/10/25 04:44:10;;;;;;;6.97;4.47;;;9.80;99.90;;;;;;5030113;28;20037;-84
2023/10/25 04:46:37;;;;;;;1.90;1.77;;;9.90;99.90;;;;;;5026207;28;20057;-84
2023/10/25 04:49:04;;;;;;;3.97;3.25;;;9.90;99.90;;;;;;5029078;28;20030;-85
2023/10/25 04:51:30;;;;;;;3.78;3.08;;;9.90;99.90;;;;;;5022051;28;20050;-84
2023/10/25 04:53:57;;;;;;;4.63;4.13;;;9.90;99.90;;;;;;5028062;28;20056;-85
2023/10/25 04:56:23;;;;;;;3.33;3.05;;;9.90;99.90;;;;;;5012237;28;20046;-84
2023/10/25 04:58:49;;;;;;;2.83;2.58;;;9.90;99.90;;;;;;5031234;28;20052;-84
2023/10/25 05:01:15;;;;;;;3.88;3.22;;;9.90;99.90;;;;;;5020876;28;20457;-83
2023/10/25 05:03:43;;;;;;;3.53;3.15;;;9.90;99.90;;;;;;5023459;28;20034;-83
2023/10/25 05:06:10;;;;;;;5.07;2.38;;;9.90;99.90;;;;;;5028227;28;20034;-84
2023/10/25 05:08:36;;;;;;;3.60;3.25;;;9.90;99.90;;;;;;5033424;28;20040;-84
2023/10/25 05:11:06;;;;;;;5.47;2.78;;;9.90;99.90;;;;;;5032850;28;20229;-84
2023/10/25 05:13:33;;;;;;;6.47;4.18;;;9.80;99.90;;;;;;5028881;28;20039;-83
2023/10/25 05:16:00;;;;;;;3.33;3.05;;;9.70;99.90;;;;;;5029958;28;20037;-83
2023/10/25 05:18:27;;;;;;;4.35;2.63;;;9.60;99.90;;;;;;5027560;28;20037;-83
2023/10/25 05:21:03;;;;;;;3.08;2.45;;;9.50;99.90;;;;;;5029403;28;20030;-83
2023/10/25 05:23:31;;;;;;;4.22;3.53;;;9.40;99.90;;;;;;5002901;28;20033;-84
2023/10/25 05:26:03;;;;;;;2.75;2.05;;;9.30;99.90;;;;;;5030330;28;20025;-83
2023/10/25 05:28:30;;;;;;;2.40;2.20;;;9.20;99.90;;;;;;5027509;28;20034;-84
2023/10/25 05:31:01;;;;;;;1.35;1.15;;;9.20;99.90;;;;;;5027370;28;20463;-84
2023/10/25 05:33:30;;;;;;;0.93;0.93;;;9.10;99.90;;;;;;5027793;28;20370;-84
2023/10/25 05:35:58;;;;;;;2.67;2.47;;;9.10;99.90;;;;;;5028521;28;20474;-84
2023/10/25 05:38:24;;;;;;;1.52;1.42;;;9.10;99.90;;;;;;4993174;28;20057;-85
2023/10/25 05:40:53;;;;;;;2.55;2.35;;;9.00;99.90;;;;;;5009499;28;20046;-84
2023/10/25 05:43:26;;;;;;;4.05;3.13;;;9.00;99.90;;;;;;5024743;28;20034;-84
2023/10/25 05:45:52;;;;;;;3.25;2.35;;;8.90;99.90;;;;;;5028334;28;20386;-85
2023/10/25 05:48:19;;;;;;;4.13;2.42;;;8.90;99.90;;;;;;5029306;28;20041;-85
2023/10/25 05:50:49;;;;;;;2.65;2.42;;;8.80;99.90;;;;;;5015923;28;20046;-84
2023/10/25 05:53:16;;;;;;;5.82;2.78;;;8.80;99.90;;;;;;5009705;28;20045;-85
2023/10/25 05:55:42;;;;;;;3.33;2.13;;;8.80;99.90;;;;;;5028950;28;20025;-85
2023/10/25 05:58:09;;;;;;;4.07;1.98;;;8.80;99.90;;;;;;5033801;28;20038;-85
2023/10/25 06:00:35;;;;;;;3.80;2.00;;;8.80;99.90;;;;;;5009997;28;20041;-85
2023/10/25 06:03:02;;;;;;;2.00;1.85;;;8.70;99.90;;;;;;5011411;28;20038;-85
2023/10/25 06:05:32;;;;;;;1.52;1.42;;;8.70;99.90;;;;;;5024478;28;20044;-85
2023/10/25 06:07:58;;;;;;;5.18;2.70;;;8.70;99.90;;;;;;5028019;28;20029;-85
2023/10/25 06:10:25;;;;;;;4.70;2.78;;;8.60;99.90;;;;;;5016377;28;20040;-85
2023/10/25 06:12:51;;;;;;;3.47;2.80;;;8.60;99.90;;;;;;5028883;28;20034;-85
2023/10/25 06:15:17;;;;;;;1.52;1.42;;;8.60;99.90;;;;;;5026371;28;20033;-87
2023/10/25 06:17:44;;;;;;;2.97;2.38;;;8.50;99.90;;;;;;5027434;28;20054;-86
2023/10/25 06:20:11;;;;;;;4.22;3.83;;;8.40;99.90;;;;;;5008322;28;20045;-84
2023/10/25 06:22:37;;;;;;;3.70;3.08;;;8.40;99.90;;;;;;5029456;28;20038;-87
2023/10/25 06:25:05;;;;;;;2.60;1.92;;;8.40;99.90;;;;;;5031525;28;20032;-88
2023/10/25 06:27:31;;;;;;;5.82;3.28;;;8.40;99.90;;;;;;5029028;28;20025;-85
2023/10/25 06:29:57;;;;;;;2.15;1.98;;;8.40;99.90;;;;;;5028093;28;20044;-86
2023/10/25 06:32:23;;;;;;;1.95;1.85;;;8.40;99.90;;;;;;5030525;28;20076;-85
2023/10/25 06:34:49;;;;;;;3.55;2.95;;;8.40;99.90;;;;;;5023075;28;20042;-85
2023/10/25 06:37:16;;;;;;;3.28;2.83;;;8.50;99.90;;;;;;5030564;28;20041;-85
2023/10/25 06:39:42;;;;;;;2.35;2.15;;;8.50;99.90;;;;;;5028590;28;20042;-86
2023/10/25 06:42:10;;;;;;;22.90;3.05;;;8.50;99.90;;;;;;5028310;28;20390;-85
2023/10/25 06:44:36;;;;;;;3.17;2.28;;;8.60;99.90;;;;;;5031562;28;20038;-86
2023/10/25 06:47:04;;;;;;;2.13;1.92;;;8.70;99.90;;;;;;5029863;28;20137;-85
2023/10/25 06:49:30;;;;;;;4.07;2.85;;;8.70;99.90;;;;;;5025736;28;20041;-85
2023/10/25 06:51:56;;;;;;;2.22;2.03;;;8.80;99.90;;;;;;5026060;28;20038;-85
2023/10/25 06:54:23;;;;;;;2.75;2.55;;;8.80;99.90;;;;;;5011167;28;20038;-85
2023/10/25 06:56:49;;;;;;;2.80;2.60;;;8.90;99.90;;;;;;5034958;28;20037;-85
2023/10/25 06:59:16;;;;;;;3.85;2.25;;;8.90;99.90;;;;;;5034895;28;20041;-85
2023/10/25 07:01:44;;;;;;;2.60;1.77;;;9.00;99.90;;;;;;5042190;28;20021;-84
2023/10/25 07:04:16;;;;;;;4.10;3.25;;;9.00;99.90;;;;;;5024861;28;20034;-83
2023/10/25 07:06:46;;;;;;;1.98;1.63;;;9.00;99.90;;;;;;5036906;28;20037;-85
2023/10/25 07:09:14;;;;;;;5.05;3.58;;;9.10;99.90;;;;;;5026928;28;20064;-84
2023/10/25 07:11:40;;;;;;;2.00;1.77;;;9.20;99.90;;;;;;5027899;28;20037;-86
2023/10/25 07:14:06;;;;;;;3.70;2.80;;;9.20;99.90;;;;;;5032513;28;20939;-86
2023/10/25 07:16:32;;;;;;;2.42;2.22;;;9.30;99.90;;;;;;5028399;28;20036;-85
2023/10/25 07:18:58;;;;;;;1.42;1.33;;;9.40;99.90;;;;;;5037608;28;20037;-85
2023/10/25 07:21:25;;;;;;;2.10;1.05;;;9.60;99.90;;;;;;5036923;28;20485;-86
2023/10/25 07:23:53;;;;;;;3.92;2.78;;;9.80;99.90;;;;;;5029293;28;20033;-86
2023/10/25 07:26:19;;;;;;;2.13;1.63;;;9.80;99.90;;;;;;5031440;28;20056;-85
2023/10/25 07:28:45;;;;;;;2.67;2.47;;;9.90;99.90;;;;;;5030172;28;20052;-85
2023/10/25 07:31:12;;;;;;;7.75;1.40;;;9.90;99.90;;;;;;5024840;28;20044;-83
2023/10/25 07:33:38;;;;;;;0.90;0.90;;;9.80;99.90;;;;;;5027398;28;20037;-85
2023/10/25 07:36:04;;;;;;;1.75;1.65;;;9.80;99.90;;;;;;5030297;28;20351;-85
2023/10/25 07:38:31;;;;;;;2.00;1.25;;;9.80;99.90;;;;;;5027339;28;20045;-85
2023/10/25 07:40:57;;;;;;;2.00;1.65;;;9.80;99.90;;;;;;5034125;28;20034;-85
2023/10/25 07:43:24;;;;;;;2.22;1.45;;;10.10;99.90;;;;;;5025448;28;20040;-84
2023/10/25 07:45:50;;;;;;;4.65;2.85;;;10.30;99.90;;;;;;5021667;28;20033;-85
2023/10/25 07:48:16;;;;;;;1.55;1.38;;;10.60;99.90;;;;;;5030848;28;20398;-84
2023/10/25 07:50:43;;;;;;;5.65;2.20;;;10.70;99.90;;;;;;5025591;28;20033;-84
2023/10/25 07:53:09;;;;;;;1.20;1.10;;;10.80;99.90;;;;;;5022614;28;20034;-84
2023/10/25 07:55:40;;;;;;;4.28;1.95;;;10.90;99.90;;;;;;5025376;28;20442;-84
2023/10/25 07:58:07;;;;;;;3.38;1.40;;;11.20;99.90;;;;;;5027191;28;20041;-86
2023/10/25 08:00:34;;;;;;;2.78;1.70;;;11.40;99.90;;;;;;5028256;28;20263;-84
2023/10/25 08:03:00;;;;;;;3.03;2.15;;;12.00;99.90;;;;;;5022947;28;20041;-84
2023/10/25 08:05:26;;;;;;;1.98;1.20;;;11.80;99.90;;;;;;5028330;28;20033;-84
2023/10/25 08:07:52;;;;;;;1.35;0.93;;;11.50;99.90;;;;;;5030275;28;20048;-86
2023/10/25 08:10:19;;;;;;;2.90;2.13;;;11.30;99.90;;;;;;5028413;28;20030;-86
2023/10/25 08:12:45;;;;;;;4.18;0.73;;;11.10;99.90;;;;;;5022460;28;20037;-85
2023/10/25 08:15:11;;;;;;;1.77;1.67;;;11.00;99.90;;;;;;5027208;28;20036;-85
2023/10/25 08:17:37;;;;;;;1.45;1.00;;;11.10;99.90;;;;;;5027007;28;20057;-85
2023/10/25 08:20:05;;;;;;;1.02;0.95;;;11.10;99.90;;;;;;5026507;28;20026;-85
2023/10/25 08:22:33;;;;;;;2.53;1.40;;;11.40;99.90;;;;;;5026777;28;20034;-86
2023/10/25 08:24:59;;;;;;;1.88;1.70;;;12.20;99.90;;;;;;5027208;28;20458;-85
2023/10/25 08:27:25;;;;;;;0.98;0.98;;;12.60;99.90;;;;;;5025724;28;20033;-83
2023/10/25 08:29:51;;;;;;;0.80;0.80;;;12.80;99.90;;;;;;5031819;28;20034;-82
2023/10/25 08:32:18;;;;;;;1.45;1.08;;;13.10;99.90;;;;;;5028374;28;20029;-82
2023/10/25 08:34:45;;;;;;;1.38;1.15;;;13.10;99.90;;;;;;5024111;28;20037;-84
2023/10/25 08:37:11;;;;;;;0.10;0.10;;;13.10;99.90;;;;;;5027692;28;20036;-84
2023/10/25 08:39:37;;;;;;;0.43;0.43;;;13.20;99.90;;;;;;5033737;28;20041;-85
2023/10/25 08:42:06;;;;;;;0.90;0.75;;;12.90;99.90;;;;;;5033871;28;20029;-84
2023/10/25 08:44:38;;;;;;;0.40;0.40;;;12.70;99.90;;;;;;5017599;28;20038;-84
2023/10/25 08:47:05;;;;;;;0.20;0.20;;;12.50;99.90;;;;;;5032333;28;20492;-84
2023/10/25 08:49:31;;;;;;;0.45;0.45;;;12.30;99.90;;;;;;5029195;28;20042;-84
2023/10/25 08:51:59;;;;;;;0.30;0.30;;;12.20;99.90;;;;;;5030342;28;20033;-84
2023/10/25 08:54:27;;;;;;;1.02;0.68;;;12.00;99.90;;;;;;5030405;28;20041;-85
2023/10/25 08:56:53;;;;;;;0.25;0.25;;;12.00;99.90;;;;;;5031785;28;20038;-87
2023/10/25 08:59:20;;;;;;;0.32;0.32;;;11.90;99.90;;;;;;5031383;28;20056;-86
2023/10/25 09:01:47;;;;;;;0.20;0.20;;;11.90;99.20;;;;;;5017174;28;20041;-86
2023/10/25 09:04:14;;;;;;;0.10;0.10;;;11.90;99.90;;;;;;5033349;28;20026;-86
2023/10/25 09:06:40;;;;;;;1.27;0.82;;;11.90;99.90;;;;;;5033097;28;20037;-87
2023/10/25 09:09:09;;;;;;;0.20;0.20;;;11.90;99.90;;;;;;5030959;28;20390;-86
2023/10/25 09:11:43;;;;;;;0.22;0.22;;;11.90;99.90;;;;;;5029554;28;20034;-87
2023/10/25 09:14:10;;;;;;;0.45;0.40;;;11.80;99.90;;;;;;5032566;28;20332;-85
2023/10/25 09:16:41;;;;;;;0.17;0.17;;;11.80;99.90;;;;;;5026995;28;20241;-84
2023/10/25 09:19:07;;;;;;;0.03;0.03;;;11.70;99.90;;;;;;5031853;28;20041;-86
2023/10/25 09:21:33;;;;;;;1.35;0.70;;;11.60;99.90;;;;;;5038067;28;20048;-85
2023/10/25 09:24:02;;;;;;;0.40;0.28;;;11.60;99.90;;;;;;5047921;28;20399;-85
2023/10/25 09:26:39;;;;;;;0.28;0.28;;;11.50;99.90;;;;;;5033837;28;20040;-87
2023/10/25 09:29:07;;;;;;;0.50;0.50;;;11.50;99.90;;;;;;5039780;28;20045;-86
2023/10/25 09:31:34;;;;;;;0.10;0.10;;;11.50;99.90;;;;;;5034686;28;20030;-87
2023/10/25 09:34:02;;;;;;;1.58;0.38;;;11.50;99.90;;;;;;5036032;28;20041;-83
2023/10/25 09:36:28;;;;;;;1.20;0.68;;;11.50;99.90;;;;;;5041929;28;20033;-83
2023/10/25 09:38:55;;;;;;;0.17;0.17;;;11.40;99.90;;;;;;5029724;28;20041;-89
2023/10/25 09:41:22;;;;;;;0.55;0.55;;;11.40;99.90;;;;;;5027248;28;20038;-86
2023/10/25 09:43:52;;;;;;;1.67;0.55;;;11.40;99.90;;;;;;5031413;28;20029;-89
2023/10/25 09:46:20;;;;;;;;;;;11.40;99.90;;;;;;5032722;28;20054;-84
2023/10/25 09:48:53;;;;;;;0.20;0.20;;;11.40;99.90;;;;;;5027986;28;19920;-86
2023/10/25 09:51:31;;;;;;;0.30;0.30;;;11.40;99.90;;;;;;5027630;28;20044;-84
2023/10/25 09:54:01;;;;;;;1.40;1.15;;;11.40;99.90;;;;;;5029854;28;20029;-88
2023/10/25 09:56:28;;;;;;;0.68;0.52;;;11.40;99.90;;;;;;5027070;28;20033;-85
2023/10/25 09:58:55;;;;;;;0.40;0.40;;;11.40;99.90;;;;;;5031333;28;20042;-86
2023/10/25 10:01:21;;;;;;;0.88;0.80;;;11.30;99.90;;;;;;5031401;28;20041;-86
2023/10/25 10:03:59;;;;;;;0.20;0.20;;;11.30;99.90;;;;;;5032992;28;20041;-86
2023/10/25 10:06:55;;;;;;;0.63;0.63;;;11.30;99.90;;;;;;5030435;28;20072;-88
2023/10/25 10:09:43;;;;;;;0.22;0.22;;;11.30;99.90;;;;;;5031860;28;20038;-84
2023/10/25 10:12:10;;;;;;;0.50;0.32;;;11.30;99.90;;;;;;5030795;28;20034;-86
2023/10/25 10:14:38;;;;;;;0.60;0.50;;;11.40;99.90;;;;;;5011698;28;20045;-86
2023/10/25 10:17:09;;;;;;;1.02;0.73;;;11.40;99.90;;;;;;5030795;28;20038;-87
2023/10/25 10:19:43;;;;;;;0.85;0.75;;;11.30;99.90;;;;;;5028609;28;20040;-85
2023/10/25 10:22:13;;;;;;;0.05;0.05;;;11.30;99.90;;;;;;5024976;28;20042;-86
2023/10/25 10:24:52;;;;;;;0.10;0.10;;;11.30;99.90;;;;;;5026355;28;20045;-85
2023/10/25 10:27:20;;;;;;;0.40;0.35;;;11.30;99.90;;;;;;5013462;28;20283;-86
2023/10/25 10:29:48;;;;;;;0.47;0.40;;;11.40;99.90;;;;;;5024450;28;20405;-88
2023/10/25 10:32:15;;;;;;;0.73;0.43;;;11.40;99.90;;;;;;5030140;28;20064;-85
2023/10/25 10:34:52;;;;;;;0.32;0.30;;;11.40;99.90;;;;;;5024401;28;20041;-84
2023/10/25 10:37:28;;;;;;;1.90;0.95;;;11.50;99.90;;;;;;5025402;28;20386;-85
2023/10/25 10:39:57;;;;;;;0.20;0.20;;;11.50;99.90;;;;;;5006512;28;20037;-85
2023/10/25 10:42:33;;;;;;;3.83;0.20;;;11.50;99.90;;;;;;5027662;28;20026;-82
2023/10/25 10:45:04;;;;;;;0.30;0.30;;;11.50;99.90;;;;;;5024505;28;20045;-84
2023/10/25 10:47:39;;;;;;;1.05;0.95;;;11.50;99.90;;;;;;5010070;28;20050;-84
2023/10/25 10:50:16;;;;;;;0.55;0.40;;;11.50;99.90;;;;;;5023840;28;20037;-84
2023/10/25 10:52:44;;;;;;;0.25;0.25;;;11.50;99.90;;;;;;5029090;28;20247;-84
2023/10/25 10:55:15;;;;;;;0.20;0.15;;;11.50;99.90;;;;;;5027533;28;20038;-84
2023/10/25 10:57:42;;;;;;;0.85;0.85;;;11.50;99.90;;;;;;5024331;28;20034;-83
2023/10/25 11:00:13;;;;;;;0.60;0.60;;;11.50;99.90;;;;;;5025515;28;20364;-83
2023/10/25 11:02:44;;;;;;;3.40;1.00;;;11.50;99.90;;;;;;5029156;28;20029;-84
2023/10/25 11:05:13;;;;;;;0.20;0.20;;;11.60;99.90;;;;;;5028787;28;20041;-84
2023/10/25 11:07:39;;;;;;;0.17;0.17;;;11.60;99.90;;;;;;5035111;28;20041;-83
2023/10/25 11:10:05;;;;;;;1.05;0.80;;;11.60;99.90;;;;;;5028757;28;20041;-87
2023/10/25 11:12:32;;;;;;;0.28;0.28;;;11.60;99.90;;;;;;5024711;28;20057;-83
2023/10/25 11:15:03;;;;;;;0.47;0.47;;;11.70;99.90;;;;;;5027024;28;20052;-84
2023/10/25 11:17:31;;;;;;;0.32;0.32;;;11.70;99.90;;;;;;5025597;28;20044;-84
2023/10/25 11:19:57;;;;;;;0.43;0.22;;;11.80;99.90;;;;;;5028436;28;20037;-88
2023/10/25 11:22:23;;;;;;;0.43;0.40;;;11.80;99.90;;;;;;5031574;28;20032;-89
2023/10/25 11:24:51;;;;;;;0.10;0.10;;;11.90;99.90;;;;;;5024268;28;20375;-86
2023/10/25 11:27:18;;;;;;;0.20;0.20;;;12.00;99.90;;;;;;5027757;28;20034;-88
2023/10/25 11:29:45;;;;;;;2.60;1.17;;;11.90;99.90;;;;;;5028923;28;20617;-85
2023/10/25 11:32:12;;;;;;;0.50;0.50;;;11.90;99.90;;;;;;5029736;28;20041;-87
2023/10/25 11:34:42;;;;;;;0.57;0.52;;;11.90;99.90;;;;;;5026862;28;20045;-88
2023/10/25 11:37:09;;;;;;;;;;;11.80;99.90;;;;;;5031177;28;20470;-87
2023/10/25 11:39:54;;;;;;;1.33;1.08;;;11.80;99.90;;;;;;5025532;28;19913;-88
2023/10/25 11:42:20;;;;;;;0.45;0.45;;;11.80;99.90;;;;;;5027126;28;20034;-88
2023/10/25 11:44:47;;;;;;;3.15;0.50;;;11.80;99.90;;;;;;5028486;28;20033;-85
2023/10/25 11:47:21;;;;;;;0.10;0.10;;;11.80;99.90;;;;;;5025215;28;20050;-85
2023/10/25 11:49:57;;;;;;;0.43;0.43;;;11.90;99.90;;;;;;5035305;28;20026;-85
2023/10/25 11:52:26;;;;;;;0.17;0.10;;;11.90;99.90;;;;;;5028931;28;20033;-85
2023/10/25 11:54:56;;;;;;;1.00;0.73;;;12.00;99.90;;;;;;5034749;28;20056;-86
2023/10/25 11:57:24;;;;;;;0.20;0.20;;;12.00;99.90;;;;;;5036093;28;20040;-85
2023/10/25 11:59:50;;;;;;;2.50;0.63;;;12.00;99.90;;;;;;5037443;28;20033;-85
2023/10/25 12:02:22;;;;;;;0.32;0.25;;;12.10;99.90;;;;;;5030592;28;20030;-87
2023/10/25 12:04:49;;;;;;;0.43;0.30;;;12.10;99.90;;;;;;5010843;28;20034;-86
2023/10/25 12:07:16;;;;;;;0.47;0.47;;;12.10;99.90;;;;;;5030461;28;20466;-85
2023/10/25 12:09:44;;;;;;;0.30;0.30;;;12.10;99.90;;;;;;5023954;28;20026;-84
2023/10/25 12:12:11;;;;;;;1.15;0.88;;;12.10;99.90;;;;;;5024663;28;20391;-85
2023/10/25 12:14:37;;;;;;;0.45;0.35;;;12.10;99.90;;;;;;5026794;28;20386;-84
2023/10/25 12:17:05;;;;;;;0.90;0.43;;;12.10;99.90;;;;;;5029199;28;20045;-85
2023/10/25 12:19:36;;;;;;;0.63;0.38;;;12.10;99.90;;;;;;5027152;28;20467;-89
2023/10/25 12:22:07;;;;;;;0.77;0.77;;;12.20;99.90;;;;;;5024583;28;20038;-86
2023/10/25 12:24:34;;;;;;;0.30;0.28;;;12.20;99.90;;;;;;5027996;28;20379;-83
2023/10/25 12:27:01;;;;;;;0.10;0.10;;;12.20;99.90;;;;;;5029141;28;20386;-87
2023/10/25 12:29:27;;;;;;;0.45;0.30;;;12.30;99.90;;;;;;5023162;28;20041;-84
2023/10/25 12:31:54;;;;;;;0.20;0.20;;;12.30;99.90;;;;;;5024913;28;20038;-87
2023/10/25 12:34:20;;;;;;;0.40;0.40;;;12.30;99.90;;;;;;5025620;28;20034;-88
2023/10/25 12:36:47;;;;;;;0.40;0.40;;;12.30;99.90;;;;;;5036030;28;20107;-86
2023/10/25 12:39:13;;;;;;;0.20;0.20;;;12.30;99.90;;;;;;5025946;28;20048;-87
2023/10/25 12:41:39;;;;;;;0.00;0.00;;;12.30;99.90;;;;;;5028007;28;20453;-88
2023/10/25 12:44:08;;;;;;;4.13;1.15;;;12.30;99.90;;;;;;5023396;28;20443;-84
2023/10/25 12:46:35;;;;;;;0.10;0.10;;;12.20;99.90;;;;;;5022991;28;20049;-86
2023/10/25 12:49:03;;;;;;;0.38;0.20;;;12.20;99.90;;;;;;5038906;28;20046;-85
2023/10/25 12:51:30;;;;;;;0.52;0.50;;;12.20;99.90;;;;;;5048567;28;20021;-82
2023/10/25 12:53:57;;;;;;;0.30;0.30;;;12.10;99.90;;;;;;5029034;28;20034;-89